Map

Track Data

SID SEASON NUMBER BASIN SUBBASIN NAME ISO_TIME NATURE LAT LON WMO_WIND WMO_PRES WMO_AGENCY TRACK_TYPE DIST2LAND LANDFALL IFLAG USA_AGENCY USA_ATCF_ID USA_LAT USA_LON USA_RECORD USA_STATUS USA_WIND USA_PRES USA_SSHS USA_R34_NE USA_R34_SE USA_R34_SW USA_R34_NW USA_R50_NE USA_R50_SE USA_R50_SW USA_R50_NW USA_R64_NE USA_R64_SE USA_R64_SW USA_R64_NW USA_POCI USA_ROCI USA_RMW USA_EYE TOKYO_LAT TOKYO_LON TOKYO_GRADE TOKYO_WIND TOKYO_PRES TOKYO_R50_DIR TOKYO_R50_LONG TOKYO_R50_SHORT TOKYO_R30_DIR TOKYO_R30_LONG TOKYO_R30_SHORT TOKYO_LAND CMA_LAT CMA_LON CMA_CAT CMA_WIND CMA_PRES HKO_LAT HKO_LON HKO_CAT HKO_WIND HKO_PRES NEWDELHI_LAT NEWDELHI_LON NEWDELHI_GRADE NEWDELHI_WIND NEWDELHI_PRES NEWDELHI_CI NEWDELHI_DP NEWDELHI_POCI REUNION_LAT REUNION_LON REUNION_TYPE REUNION_WIND REUNION_PRES REUNION_TNUM REUNION_CI REUNION_RMW REUNION_R34_NE REUNION_R34_SE REUNION_R34_SW REUNION_R34_NW REUNION_R50_NE REUNION_R50_SE REUNION_R50_SW REUNION_R50_NW REUNION_R64_NE REUNION_R64_SE REUNION_R64_SW REUNION_R64_NW BOM_LAT BOM_LON BOM_TYPE BOM_WIND BOM_PRES BOM_TNUM BOM_CI BOM_RMW BOM_R34_NE BOM_R34_SE BOM_R34_SW BOM_R34_NW BOM_R50_NE BOM_R50_SE BOM_R50_SW BOM_R50_NW BOM_R64_NE BOM_R64_SE BOM_R64_SW BOM_R64_NW BOM_ROCI BOM_POCI BOM_EYE BOM_POS_METHOD BOM_PRES_METHOD NADI_LAT NADI_LON NADI_CAT NADI_WIND NADI_PRES WELLINGTON_LAT WELLINGTON_LON WELLINGTON_WIND WELLINGTON_PRES DS824_LAT DS824_LON DS824_STAGE DS824_WIND DS824_PRES TD9636_LAT TD9636_LON TD9636_STAGE TD9636_WIND TD9636_PRES TD9635_LAT TD9635_LON TD9635_WIND TD9635_PRES TD9635_ROCI NEUMANN_LAT NEUMANN_LON NEUMANN_CLASS NEUMANN_WIND NEUMANN_PRES MLC_LAT MLC_LON MLC_CLASS MLC_WIND MLC_PRES USA_GUST BOM_GUST BOM_GUST_PER REUNION_GUST REUNION_GUST_PER USA_SEAHGT USA_SEARAD_NE USA_SEARAD_SE USA_SEARAD_SW USA_SEARAD_NW STORM_SPEED STORM_DIR
1947266N18072 1947 69 NI AS NOT_NAMED 1947-09-22 18:00:00 TS 18.1000 72.1000 main 85 84 O________O____ jtwc_io IO121947 18.1000 72.1000 -1 18.1000 72.1000 TC 2 344
1947266N18072 1947 69 NI AS NOT_NAMED 1947-09-22 21:00:00 TS 18.1850 72.0800 main 84 84 P________P____ IO121947 18.1850 72.0800 -1 18.1850 72.0800 TC 2 8
1947266N18072 1947 69 NI AS NOT_NAMED 1947-09-23 00:00:00 TS 18.3000 72.1000 main 84 73 O________O____ jtwc_io IO121947 18.3000 72.1000 -1 18.3000 72.1000 TC 25 3 20
1947266N18072 1947 69 NI AS NOT_NAMED 1947-09-23 03:00:00 TS 18.4733 72.1867 main 74 57 P________PO___ IO121947 18.4700 72.1850 -1 18.4700 72.1850 TC 25 18.5000 72.2000 1 5 25
1947266N18072 1947 69 NI AS NOT_NAMED 1947-09-23 06:00:00 TS 18.7131 72.3009 main 57 42 O________OP___ jtwc_io IO121947 18.7000 72.3000 -1 18.7000 72.3000 TC 25 18.7657 72.3044 1 6 21
1947266N18072 1947 69 NI AS NOT_NAMED 1947-09-23 09:00:00 TS 18.9986 72.4020 main 42 30 P________PP___ IO121947 18.9850 72.4000 -1 18.9850 72.4000 TC 25 19.0351 72.4072 1 6 18
1947266N18072 1947 69 NI AS NOT_NAMED 1947-09-23 12:00:00 TS 19.3040 72.5021 main 30 10 O________OP___ jtwc_io IO121947 19.3000 72.5000 -1 19.3000 72.5000 TC 25 19.3119 72.5064 1 6 18
1947266N18072 1947 69 NI AS NOT_NAMED 1947-09-23 15:00:00 TS 19.5950 72.6050 main 10 0 P________PO___ IO121947 19.5925 72.6075 -1 19.5925 72.6075 TC 25 19.6000 72.6000 1 6 17
1947266N18072 1947 69 NI AS NOT_NAMED 1947-09-23 18:00:00 TS 19.9008 72.6954 main 0 0 O________OP___ jtwc_io IO121947 19.9000 72.7000 -1 19.9000 72.7000 TC 25 19.9025 72.6863 1 7 13
1947266N18072 1947 69 NI AS NOT_NAMED 1947-09-23 21:00:00 TS 20.2350 72.7551 main 0 0 P________PP___ IO121947 20.2425 72.7501 -1 20.2425 72.7501 TC 25 20.2200 72.7651 1 7 9
1947266N18072 1947 69 NI AS NOT_NAMED 1947-09-24 00:00:00 TS 20.5842 72.8121 main 10 0 O________OP___ jtwc_io IO121947 20.6000 72.8000 -1 20.6000 72.8000 TC 25 20.5525 72.8363 1 7 11
1947266N18072 1947 69 NI AS NOT_NAMED 1947-09-24 03:00:00 TS 20.9333 72.9000 main 0 0 P________PO___ IO121947 20.9500 72.8999 -1 20.9500 72.8999 TC 25 20.9000 72.9000 1 7 13
1947266N18072 1947 69 NI AS NOT_NAMED 1947-09-24 06:00:00 TS 21.2842 72.9884 main 0 0 O________OP___ jtwc_io IO121947 21.3000 73.0000 -1 21.3000 73.0000 TC 25 21.2525 72.9653 1 7 12
1947266N18072 1947 69 NI AS NOT_NAMED 1947-09-24 09:00:00 TS 21.6350 73.0508 main 0 0 P________PP___ IO121947 21.6425 73.0650 -1 21.6425 73.0650 TC 25 21.6200 73.0224 1 7 8
1947266N18072 1947 69 NI AS NOT_NAMED 1947-09-24 12:00:00 TS 22.0008 73.0895 main 0 0 O________OP___ jtwc_io IO121947 22.0000 73.1000 -1 22.0000 73.1000 TC 25 22.0025 73.0684 1 8 4
1947266N18072 1947 69 NI AS NOT_NAMED 1947-09-24 15:00:00 TS 22.3900 73.1050 main 0 0 P________PO___ IO121947 22.3850 73.1076 -1 22.3850 73.1076 TC 25 22.4000 73.1000 1 8 2
1947266N18072 1947 69 NI AS NOT_NAMED 1947-09-24 18:00:00 TS 22.8035 73.1009 main 0 0 O________OP___ jtwc_io IO121947 22.8000 73.1000 -1 22.8000 73.1000 TC 25 22.8106 73.1027 1 9 360
1947266N18072 1947 69 NI AS NOT_NAMED 1947-09-24 21:00:00 TS 23.2450 73.0977 main 0 0 P________PP___ IO121947 23.2500 73.1000 -1 23.2500 73.1000 TC 25 23.2350 73.0932 1 9 359
1947266N18072 1947 69 NI AS NOT_NAMED 1947-09-25 00:00:00 TS 23.6890 73.0957 main 0 0 O________OP___ jtwc_io IO121947 23.7000 73.1000 -1 23.7000 73.1000 TC 25 23.6669 73.0871 1 9 360
1947266N18072 1947 69 NI AS NOT_NAMED 1947-09-25 03:00:00 TS 24.1000 73.0901 main 0 0 P________PO___ IO121947 24.1000 73.0852 -1 24.1000 73.0852 TC 25 24.1000 73.1000 1 8 0
1947266N18072 1947 69 NI AS NOT_NAMED 1947-09-25 06:00:00 TS 24.5056 73.1125 main 0 0 O________OP___ jtwc_io IO121947 24.5000 73.1000 -1 24.5000 73.1000 TC 25 24.5168 73.1375 1 9 6
1947266N18072 1947 69 NI AS NOT_NAMED 1947-09-25 09:00:00 TS 24.9450 73.1893 main 0 0 P________PP___ IO121947 24.9500 73.1849 -1 24.9500 73.1849 TC 25 24.9349 73.1980 1 9 10
1947266N18072 1947 69 NI AS NOT_NAMED 1947-09-25 12:00:00 TS 25.3868 73.2949 main 0 0 O________OP___ jtwc_io IO121947 25.4000 73.3000 -1 25.4000 73.3000 TC 25 25.3605 73.2846 1 9 12
1947266N18072 1947 69 NI AS NOT_NAMED 1947-09-25 15:00:00 TS 25.7950 73.3902 main 0 0 P________PO___ IO121947 25.7925 73.3853 -1 25.7925 73.3853 TC 25 25.8000 73.4000 1 9 14
1947266N18072 1947 69 NI AS NOT_NAMED 1947-09-25 18:00:00 TS 26.2231 73.5182 main 0 0 O________OP___ jtwc_io IO121947 26.2000 73.5000 -1 26.2000 73.5000 TC 25 26.2577 73.5456 1 10 17
1947266N18072 1947 69 NI AS NOT_NAMED 1947-09-25 21:00:00 TS 26.7002 73.6950 main 0 0 P________PP___ IO121947 26.6776 73.6794 -1 26.6776 73.6794 TC 25 26.7303 73.7158 1 10 19
1947266N18072 1947 69 NI AS NOT_NAMED 1947-09-26 00:00:00 TS 27.2064 73.9016 main 0 0 O________OP___ jtwc_io IO121947 27.2000 73.9000 -1 27.2000 73.9000 TC 25 27.2128 73.9032 1 11 20
1947266N18072 1947 69 NI AS NOT_NAMED 1947-09-26 03:00:00 NR 27.7000 74.1000 main 0 __________O___ IO121947 -1 TC 27.7000 74.1000 1 11 20

About IBTrACS Database

This database is a web-friendly format of International Best Track Archive for Climate Stewardship (IBTrACS), a global best track data archive curated by NOAA dating back to 1842.

Updated: 2021-10-21